Time;durP1;ratioP1;P1;durP2;ratioP2;P2;SDS_P1;SDS_P2;PMS_P1;PMS_P2;Temp;Humidity;BMP_temperature;BMP_pressure;BME280_temperature;BME280_humidity;BME280_pressure;Samples;Min_cycle;Max_cycle;Signal;HPM_P1;HPM_P2
2022/03/08 00:00:13;;;;;;;4.15;2.05;;;;;;;-148.56;100.00;61375.16;5009366;28;20067;-29
2022/03/08 00:03:37;;;;;;;4.10;2.00;;;;;;;-148.56;100.00;61375.16;5006793;28;20148;-31
2022/03/08 00:07:01;;;;;;;4.93;2.30;;;;;;;-148.56;100.00;61375.16;5008474;28;20026;-30
2022/03/08 00:10:26;;;;;;;2.72;1.75;;;;;;;-148.56;100.00;61375.16;5009333;28;20180;-32
2022/03/08 00:13:51;;;;;;;2.85;1.90;;;;;;;-148.56;100.00;61375.16;5001013;28;20021;-28
2022/03/08 00:17:15;;;;;;;2.83;1.80;;;;;;;-148.56;100.00;61375.16;5001100;28;20030;-28
2022/03/08 00:20:39;;;;;;;3.58;1.80;;;;;;;-148.56;100.00;61375.16;5007927;28;20041;-28
2022/03/08 00:24:03;;;;;;;5.65;2.00;;;;;;;-148.56;100.00;61375.16;5006932;28;20040;-32
2022/03/08 00:27:28;;;;;;;3.50;2.00;;;;;;;-148.56;100.00;61375.16;5007394;28;20037;-32
2022/03/08 00:30:52;;;;;;;4.03;1.80;;;;;;;-148.56;100.00;61375.16;5008140;28;20140;-30
2022/03/08 00:34:16;;;;;;;4.13;1.90;;;;;;;-148.56;100.00;61375.16;5008943;28;20060;-30
2022/03/08 00:37:40;;;;;;;2.85;1.73;;;;;;;-148.56;100.00;61375.16;5006102;28;20144;-30
2022/03/08 00:41:04;;;;;;;4.00;1.90;;;;;;;-148.56;100.00;61375.16;5007674;28;20037;-28
2022/03/08 00:44:28;;;;;;;2.40;1.80;;;;;;;-148.56;100.00;61375.16;5008501;28;20116;-28
2022/03/08 00:47:52;;;;;;;3.22;1.95;;;;;;;-148.56;100.00;61375.16;5004092;28;20385;-33
2022/03/08 00:51:23;;;;;;;2.95;2.03;;;;;;;-148.56;100.00;61375.16;5004583;28;20030;-30
2022/03/08 00:54:47;;;;;;;2.15;1.50;;;;;;;-148.56;100.00;61375.16;5007661;28;20100;-28
2022/03/08 00:58:11;;;;;;;2.08;1.70;;;;;;;-148.56;100.00;61375.16;5006399;28;20400;-28
2022/03/08 01:01:37;;;;;;;2.45;1.80;;;;;;;-148.56;100.00;61375.16;5004841;28;20049;-31
2022/03/08 01:05:01;;;;;;;2.50;1.70;;;;;;;-148.56;100.00;61375.16;5007544;28;20040;-29
2022/03/08 01:08:25;;;;;;;2.65;1.70;;;;;;;-148.56;100.00;61375.16;5006987;28;20527;-30
2022/03/08 01:11:49;;;;;;;2.40;1.58;;;;;;;-148.56;100.00;61375.16;5008079;28;20025;-30
2022/03/08 01:15:13;;;;;;;3.60;1.85;;;;;;;-148.56;100.00;61375.16;5008345;28;20168;-31
2022/03/08 01:18:37;;;;;;;3.83;1.75;;;;;;;-148.56;100.00;61375.16;5007373;28;20022;-28
2022/03/08 01:22:01;;;;;;;2.08;1.58;;;;;;;-148.56;100.00;61375.16;5005168;28;20025;-30
2022/03/08 01:25:25;;;;;;;2.47;1.73;;;;;;;-148.56;100.00;61375.16;5007147;28;20021;-30
2022/03/08 01:28:49;;;;;;;4.55;1.58;;;;;;;-148.56;100.00;61375.16;5003864;28;20013;-29
2022/03/08 01:32:12;;;;;;;1.75;1.58;;;;;;;-148.56;100.00;61375.16;5007751;28;20041;-30
2022/03/08 01:35:36;;;;;;;2.30;1.60;;;;;;;-148.56;100.00;61375.16;5006656;28;20060;-29
2022/03/08 01:39:01;;;;;;;3.90;1.40;;;;;;;-148.56;100.00;61375.16;5006522;28;20041;-26
2022/03/08 01:42:25;;;;;;;2.85;1.73;;;;;;;-148.56;100.00;61375.16;5006412;28;20115;-28
2022/03/08 01:45:49;;;;;;;2.75;1.60;;;;;;;-148.56;100.00;61375.16;5005350;28;20061;-30
2022/03/08 01:49:14;;;;;;;1.67;1.55;;;;;;;-148.56;100.00;61375.16;5007045;28;20081;-26
2022/03/08 01:52:38;;;;;;;1.52;1.33;;;;;;;-148.56;100.00;61375.16;5001142;28;20025;-29
2022/03/08 01:56:02;;;;;;;2.65;1.80;;;;;;;-148.56;100.00;61375.16;5006320;28;20420;-30
2022/03/08 01:59:25;;;;;;;20.30;3.33;;;;;;;-148.56;100.00;61375.16;5006059;28;20038;-32
2022/03/08 02:02:50;;;;;;;2.05;1.58;;;;;;;-148.56;100.00;61375.16;5005599;28;20065;-27
2022/03/08 02:06:14;;;;;;;3.67;1.90;;;;;;;-148.56;100.00;61375.16;5005411;28;20127;-29
2022/03/08 02:09:37;;;;;;;4.45;1.70;;;;;;;-148.56;100.00;61375.16;5007455;28;20040;-30
2022/03/08 02:13:02;;;;;;;1.92;1.40;;;;;;;-148.56;100.00;61375.16;5002880;28;20053;-30
2022/03/08 02:16:26;;;;;;;4.32;1.63;;;;;;;-148.56;100.00;61375.16;5002875;28;20119;-29
2022/03/08 02:19:56;;;;;;;1.85;1.67;;;;;;;-148.56;100.00;61375.16;5004505;28;20064;-28
2022/03/08 02:23:20;;;;;;;2.50;1.50;;;;;;;-148.56;100.00;61375.16;5005968;28;20129;-32
2022/03/08 02:26:44;;;;;;;2.78;1.10;;;;;;;-148.56;100.00;61375.16;4999584;28;20377;-30
2022/03/08 02:30:09;;;;;;;1.73;1.45;;;;;;;-148.56;100.00;61375.16;5005532;28;20029;-29
2022/03/08 02:33:33;;;;;;;2.25;1.52;;;;;;;-148.56;100.00;61375.16;5006195;28;20033;-30
2022/03/08 02:37:01;;;;;;;2.50;1.35;;;;;;;-148.56;100.00;61375.16;5005255;28;20025;-29
2022/03/08 02:40:26;;;;;;;2.38;1.55;;;;;;;-148.56;100.00;61375.16;4999870;28;20041;-28
2022/03/08 02:43:49;;;;;;;2.22;1.27;;;;;;;-148.56;100.00;61375.16;4996394;28;20029;-30
2022/03/08 02:47:13;;;;;;;5.93;1.60;;;;;;;-148.56;100.00;61375.16;5001953;28;20209;-31
2022/03/08 02:50:37;;;;;;;1.77;1.45;;;;;;;-148.56;100.00;61375.16;5008069;28;20037;-30
2022/03/08 02:54:01;;;;;;;2.20;1.30;;;;;;;-148.56;100.00;61375.16;5003717;28;20145;-30
2022/03/08 02:57:25;;;;;;;1.88;1.40;;;;;;;-148.56;100.00;61375.16;4999743;28;23541;-30
2022/03/08 03:00:49;;;;;;;2.42;1.63;;;;;;;-148.56;100.00;61375.16;5007229;28;20427;-30
2022/03/08 03:04:13;;;;;;;4.30;1.50;;;;;;;-148.56;100.00;61375.16;5005768;28;20060;-28
2022/03/08 03:07:37;;;;;;;2.33;1.40;;;;;;;-148.56;100.00;61375.16;5006424;28;20438;-29
2022/03/08 03:11:05;;;;;;;1.52;1.30;;;;;;;-148.56;100.00;61375.16;5006901;28;20608;-27
2022/03/08 03:14:28;;;;;;;1.98;1.23;;;;;;;-148.56;100.00;61375.16;5007066;28;20343;-28
2022/03/08 03:17:52;;;;;;;2.45;1.30;;;;;;;-148.56;100.00;61375.16;5008212;28;20029;-29
2022/03/08 03:21:17;;;;;;;1.48;1.25;;;;;;;-148.56;100.00;61375.16;5005121;28;20026;-31
2022/03/08 03:24:41;;;;;;;1.80;1.20;;;;;;;-148.56;100.00;61375.16;5005836;28;20030;-33
2022/03/08 03:28:05;;;;;;;1.55;1.38;;;;;;;-148.56;100.00;61375.16;5008396;28;20026;-30
2022/03/08 03:31:29;;;;;;;2.67;1.30;;;;;;;-148.56;100.00;61375.16;5008148;28;20985;-31
2022/03/08 03:34:53;;;;;;;1.70;1.13;;;;;;;-148.56;100.00;61375.16;5008518;28;20049;-30
2022/03/08 03:38:16;;;;;;;4.10;1.38;;;;;;;-148.56;100.00;61375.16;5009439;28;20038;-34
2022/03/08 03:41:40;;;;;;;2.13;1.25;;;;;;;-148.56;100.00;61375.16;5009448;28;20034;-32
2022/03/08 03:45:05;;;;;;;1.48;1.23;;;;;;;-148.56;100.00;61375.16;5009086;28;20060;-29
2022/03/08 03:48:29;;;;;;;2.67;1.40;;;;;;;-148.56;100.00;61375.16;5006466;28;20099;-27
2022/03/08 03:51:53;;;;;;;2.42;1.58;;;;;;;-148.56;100.00;61375.16;5010569;28;20029;-28
2022/03/08 03:55:17;;;;;;;2.28;1.33;;;;;;;-148.56;100.00;61375.16;5008217;28;20026;-26
2022/03/08 03:58:41;;;;;;;1.58;1.30;;;;;;;-148.56;100.00;61375.16;5003008;28;20065;-29
2022/03/08 04:02:05;;;;;;;1.73;1.20;;;;;;;-148.56;100.00;61375.16;4999738;28;20099;-30
2022/03/08 04:05:29;;;;;;;2.40;1.70;;;;;;;-148.56;100.00;61375.16;5002519;28;20075;-30
2022/03/08 04:08:53;;;;;;;3.92;1.20;;;;;;;-148.56;100.00;61375.16;4999191;28;20700;-29
2022/03/08 04:12:17;;;;;;;1.77;1.38;;;;;;;-148.56;100.00;61375.16;5001299;28;20030;-25
2022/03/08 04:15:41;;;;;;;3.22;1.30;;;;;;;-148.56;100.00;61375.16;5000609;28;20477;-27
2022/03/08 04:19:05;;;;;;;1.75;1.30;;;;;;;-148.56;100.00;61375.16;5003740;28;20056;-29
2022/03/08 04:22:29;;;;;;;1.85;1.20;;;;;;;-148.56;100.00;61375.16;5005399;28;20169;-31
2022/03/08 04:25:53;;;;;;;1.77;1.40;;;;;;;-148.56;100.00;61375.16;5006778;28;20818;-30
2022/03/08 04:29:17;;;;;;;1.52;1.23;;;;;;;-148.56;100.00;61375.16;5006957;28;20030;-27
2022/03/08 04:32:41;;;;;;;1.35;1.17;;;;;;;-148.56;100.00;61375.16;5007258;28;20576;-27
2022/03/08 04:36:05;;;;;;;1.38;1.13;;;;;;;-148.56;100.00;61375.16;5007894;28;20160;-30
2022/03/08 04:39:29;;;;;;;1.55;1.20;;;;;;;-148.56;100.00;61375.16;5007773;28;20033;-32
2022/03/08 04:42:53;;;;;;;1.25;1.15;;;;;;;-148.56;100.00;61375.16;5010708;28;20128;-29
2022/03/08 04:46:17;;;;;;;2.85;1.10;;;;;;;-148.56;100.00;61375.16;5005771;28;20029;-27
2022/03/08 04:49:41;;;;;;;1.75;1.35;;;;;;;-148.56;100.00;61375.16;5007069;28;20026;-29
2022/03/08 04:53:05;;;;;;;1.73;1.23;;;;;;;-148.56;100.00;61375.16;5003575;28;20571;-33
2022/03/08 04:56:29;;;;;;;2.90;1.38;;;;;;;-148.56;100.00;61375.16;5008545;28;20286;-29
2022/03/08 04:59:53;;;;;;;2.08;1.30;;;;;;;-148.56;100.00;61375.16;5007450;28;20418;-31
2022/03/08 05:03:17;;;;;;;1.40;1.13;;;;;;;-148.56;100.00;61375.16;5008205;28;20117;-29
2022/03/08 05:06:41;;;;;;;2.13;1.40;;;;;;;-148.56;100.00;61375.16;5005683;28;20037;-31
2022/03/08 05:10:09;;;;;;;1.35;1.25;;;;;;;-148.56;100.00;61375.16;5007000;28;20065;-27
2022/03/08 05:13:33;;;;;;;2.53;1.42;;;;;;;-148.56;100.00;61375.16;5004605;28;20037;-29
2022/03/08 05:16:57;;;;;;;1.10;1.00;;;;;;;-148.56;100.00;61375.16;5007182;28;20029;-27
2022/03/08 05:20:21;;;;;;;1.40;1.20;;;;;;;-148.56;100.00;61375.16;5005861;28;20045;-27
2022/03/08 05:23:45;;;;;;;2.03;1.30;;;;;;;-148.56;100.00;61375.16;5007762;28;20527;-30
2022/03/08 05:27:09;;;;;;;1.70;1.20;;;;;;;-148.56;100.00;61375.16;5007254;28;20671;-29
2022/03/08 05:30:33;;;;;;;1.27;1.17;;;;;;;-148.56;100.00;61375.16;5007100;28;20430;-29
2022/03/08 05:33:57;;;;;;;1.42;1.30;;;;;;;-148.56;100.00;61375.16;5007929;28;20140;-30
2022/03/08 05:37:21;;;;;;;1.23;1.02;;;;;;;-148.56;100.00;61375.16;5009141;28;20672;-29
2022/03/08 05:40:45;;;;;;;1.50;1.40;;;;;;;-148.56;100.00;61375.16;5005384;28;20029;-29
2022/03/08 05:44:08;;;;;;;1.55;1.00;;;;;;;-148.56;100.00;61375.16;5006360;28;20087;-30
2022/03/08 05:47:32;;;;;;;2.22;1.30;;;;;;;-148.56;100.00;61375.16;5007934;28;20119;-27
2022/03/08 05:50:56;;;;;;;1.35;1.05;;;;;;;-148.56;100.00;61375.16;5006695;28;20056;-30
2022/03/08 05:54:20;;;;;;;1.90;1.40;;;;;;;-148.56;100.00;61375.16;5007693;28;20535;-29
2022/03/08 05:57:44;;;;;;;1.48;1.20;;;;;;;-148.56;100.00;61375.16;5005450;28;20038;-27
2022/03/08 06:01:08;;;;;;;1.13;1.00;;;;;;;-148.56;100.00;61375.16;5008415;28;20101;-30
2022/03/08 06:04:32;;;;;;;3.58;0.95;;;;;;;-148.56;100.00;61375.16;5004635;28;20267;-30
2022/03/08 06:07:56;;;;;;;1.20;1.10;;;;;;;-148.56;100.00;61375.16;5005788;28;20115;-29
2022/03/08 06:11:20;;;;;;;1.15;1.05;;;;;;;-148.56;100.00;61375.16;5005618;28;20072;-32
2022/03/08 06:14:43;;;;;;;2.35;1.33;;;;;;;-148.56;100.00;61375.16;5006598;28;20025;-30
2022/03/08 06:18:07;;;;;;;1.38;1.02;;;;;;;-148.56;100.00;61375.16;5004485;28;20037;-30
2022/03/08 06:21:31;;;;;;;1.85;1.20;;;;;;;-148.56;100.00;61375.16;5007171;28;20204;-30
2022/03/08 06:24:55;;;;;;;1.20;1.10;;;;;;;-148.56;100.00;61375.16;5007151;28;20029;-33
2022/03/08 06:28:19;;;;;;;2.47;1.42;;;;;;;-148.56;100.00;61375.16;5007815;28;20048;-30
2022/03/08 06:31:43;;;;;;;2.80;1.02;;;;;;;-148.56;100.00;61375.16;5005257;28;20109;-26
2022/03/08 06:35:07;;;;;;;1.70;1.08;;;;;;;-148.56;100.00;61375.16;5004177;28;20526;-30
2022/03/08 06:38:31;;;;;;;1.20;1.10;;;;;;;-148.56;100.00;61375.16;5005677;28;20516;-30
2022/03/08 06:41:55;;;;;;;1.58;1.20;;;;;;;-148.56;100.00;61375.16;5002906;28;20064;-27
2022/03/08 06:45:18;;;;;;;1.25;1.15;;;;;;;-148.56;100.00;61375.16;5006025;28;20061;-28
2022/03/08 06:48:42;;;;;;;5.03;2.20;;;;;;;-148.56;100.00;61375.16;5004467;28;20368;-31
2022/03/08 06:52:07;;;;;;;1.75;1.40;;;;;;;-148.56;100.00;61375.16;4999593;28;20160;-30
2022/03/08 06:55:31;;;;;;;1.98;1.58;;;;;;;-148.56;100.00;61375.16;5004358;28;20467;-30
2022/03/08 06:58:54;;;;;;;1.88;1.38;;;;;;;-148.56;100.00;61375.16;5003218;28;20766;-28
2022/03/08 07:02:18;;;;;;;2.28;1.20;;;;;;;-148.56;100.00;61375.16;5008638;28;20038;-29
2022/03/08 07:05:42;;;;;;;1.50;1.40;;;;;;;-148.56;100.00;61375.16;5006844;28;20026;-28
2022/03/08 07:09:06;;;;;;;4.15;1.65;;;;;;;-148.56;100.00;61375.16;5008288;28;20395;-27
2022/03/08 07:12:30;;;;;;;8.70;3.00;;;;;;;-148.56;100.00;61375.16;5010243;28;20065;-30
2022/03/08 07:15:54;;;;;;;7.55;3.38;;;;;;;-148.56;100.00;61375.16;4999964;28;20442;-32
2022/03/08 07:19:18;;;;;;;13.50;3.33;;;;;;;-148.56;100.00;61375.16;5010018;28;20033;-30
2022/03/08 07:22:42;;;;;;;5.75;3.17;;;;;;;-148.56;100.00;61375.16;4999565;28;20037;-31
2022/03/08 07:26:06;;;;;;;6.70;2.75;;;;;;;-148.56;100.00;61375.16;5000521;28;20166;-32
2022/03/08 07:29:31;;;;;;;9.23;3.13;;;;;;;-148.56;100.00;61375.16;5001049;28;20056;-33
2022/03/08 07:32:55;;;;;;;7.63;3.30;;;;;;;-148.56;100.00;61375.16;5000918;28;20029;-30
2022/03/08 07:36:19;;;;;;;6.82;2.55;;;;;;;-148.56;100.00;61375.16;4999868;28;20109;-32
2022/03/08 07:39:43;;;;;;;5.43;2.90;;;;;;;-148.56;100.00;61375.16;5000707;28;20558;-33
2022/03/08 07:43:06;;;;;;;8.80;3.10;;;;;;;-148.56;100.00;61375.16;5002405;28;20045;-28
2022/03/08 07:46:30;;;;;;;9.48;3.13;;;;;;;-148.56;100.00;61375.16;4999402;28;20140;-26
2022/03/08 07:49:54;;;;;;;6.63;2.63;;;;;;;-148.56;100.00;61375.16;4997169;28;20553;-29
2022/03/08 07:53:18;;;;;;;11.63;3.00;;;;;;;-148.56;100.00;61375.16;5001877;28;20071;-28
2022/03/08 07:56:42;;;;;;;6.90;3.33;;;;;;;-148.56;100.00;61375.16;5000841;28;20076;-26
2022/03/08 08:00:06;;;;;;;6.50;2.78;;;;;;;-148.56;100.00;61375.16;5001868;28;20036;-27
2022/03/08 08:03:30;;;;;;;4.90;2.65;;;;;;;-148.56;100.00;61375.16;4999757;28;20037;-29
2022/03/08 08:06:54;;;;;;;6.18;2.97;;;;;;;-148.56;100.00;61375.16;5001498;28;21073;-32
2022/03/08 08:10:18;;;;;;;7.40;2.67;;;;;;;-148.56;100.00;61375.16;5006770;28;20029;-28
2022/03/08 08:13:42;;;;;;;6.65;2.78;;;;;;;-148.56;100.00;61375.16;5012988;28;20083;-27
2022/03/08 08:17:06;;;;;;;5.00;2.70;;;;;;;-148.56;100.00;61375.16;5011633;28;20427;-32
2022/03/08 08:20:30;;;;;;;4.15;2.63;;;;;;;-148.56;100.00;61375.16;5009282;28;20026;-29
2022/03/08 08:23:54;;;;;;;4.97;2.40;;;;;;;-148.56;100.00;61375.16;5011339;28;20029;-34
2022/03/08 08:27:17;;;;;;;4.35;2.50;;;;;;;-148.56;100.00;61375.16;4997887;28;20637;-30
2022/03/08 08:30:41;;;;;;;4.43;2.65;;;;;;;-148.56;100.00;61375.16;4998302;28;20133;-34
2022/03/08 08:34:05;;;;;;;4.03;2.25;;;;;;;-148.56;100.00;61375.16;4984532;28;20034;-31
2022/03/08 08:37:29;;;;;;;6.10;2.85;;;;;;;-148.56;100.00;61375.16;4983852;28;20037;-30
2022/03/08 08:40:53;;;;;;;7.53;2.60;;;;;;;-148.56;100.00;61375.16;4985575;28;20026;-28
2022/03/08 08:44:19;;;;;;;4.82;2.45;;;;;;;-148.56;100.00;61375.16;4983759;28;20036;-29
2022/03/08 08:47:42;;;;;;;4.82;2.22;;;;;;;-148.56;100.00;61375.16;4982175;28;21147;-25
2022/03/08 08:51:07;;;;;;;4.72;2.83;;;;;;;-148.56;100.00;61375.16;4987192;28;20022;-28
2022/03/08 08:54:31;;;;;;;5.47;2.55;;;;;;;-148.56;100.00;61375.16;4997633;28;20721;-30
2022/03/08 08:57:54;;;;;;;4.82;2.33;;;;;;;-148.56;100.00;61375.16;4997848;28;20029;-32
2022/03/08 09:01:18;;;;;;;4.50;2.38;;;;;;;-148.56;100.00;61375.16;4999895;28;20144;-32
2022/03/08 09:04:42;;;;;;;6.03;2.40;;;;;;;-148.56;100.00;61375.16;4998674;28;20029;-28
2022/03/08 09:08:06;;;;;;;3.80;2.28;;;;;;;-148.56;100.00;61375.16;4996118;28;20647;-28
2022/03/08 09:11:30;;;;;;;4.85;2.53;;;;;;;-148.56;100.00;61375.16;4998791;28;20124;-29
2022/03/08 09:14:54;;;;;;;3.28;2.03;;;;;;;-148.56;100.00;61375.16;4999558;28;20034;-27
2022/03/08 09:18:18;;;;;;;4.25;2.17;;;;;;;-148.56;100.00;61375.16;4995692;28;20030;-31
2022/03/08 09:21:42;;;;;;;6.80;5.28;;;;;;;-148.56;100.00;61375.16;5006875;28;20123;-29
2022/03/08 09:25:06;;;;;;;9.20;5.28;;;;;;;-148.56;100.00;61375.16;5005240;28;20072;-26
2022/03/08 09:28:30;;;;;;;5.32;4.20;;;;;;;-148.56;100.00;61375.16;5003775;28;20468;-29
2022/03/08 09:31:54;;;;;;;6.80;3.67;;;;;;;-148.56;100.00;61375.16;5003575;28;20037;-28
2022/03/08 09:35:18;;;;;;;5.82;3.20;;;;;;;-148.56;100.00;61375.16;5002463;28;20033;-33
2022/03/08 09:38:42;;;;;;;5.88;3.45;;;;;;;-148.56;100.00;61375.16;5002156;28;20964;-31
2022/03/08 09:42:06;;;;;;;5.47;3.70;;;;;;;-148.56;100.00;61375.16;4997650;28;20025;-31
2022/03/08 09:45:30;;;;;;;7.65;3.30;;;;;;;-148.56;100.00;61375.16;4986889;28;20515;-32
2022/03/08 09:48:54;;;;;;;4.10;2.92;;;;;;;-148.56;100.00;61375.16;4989608;28;20064;-28
2022/03/08 09:52:19;;;;;;;5.40;3.10;;;;;;;-148.56;100.00;61375.16;4948999;28;20034;-26
2022/03/08 09:55:43;;;;;;;12.25;3.80;;;;;;;-148.56;100.00;61375.16;4957076;28;20146;-29
2022/03/08 09:59:07;;;;;;;9.02;3.28;;;;;;;-148.56;100.00;61375.16;4963840;28;20037;-28
2022/03/08 10:02:44;;;;;;;8.85;3.13;;;;;;;-148.56;100.00;61375.16;4956083;28;20041;-30
2022/03/08 10:06:08;;;;;;;4.50;2.50;;;;;;;-148.56;100.00;61375.16;4959385;28;20036;-30
2022/03/08 10:09:32;;;;;;;4.57;3.10;;;;;;;-148.56;100.00;61375.16;4951692;28;20407;-27
2022/03/08 10:12:57;;;;;;;6.07;2.65;;;;;;;-148.56;100.00;61375.16;4959114;28;21077;-28
2022/03/08 10:16:27;;;;;;;8.80;2.80;;;;;;;-148.56;100.00;61375.16;4962495;28;20033;-30
2022/03/08 10:19:54;;;;;;;8.50;3.00;;;;;;;-148.56;100.00;61375.16;4960858;28;20042;-27
2022/03/08 10:23:25;;;;;;;7.72;2.58;;;;;;;-148.56;100.00;61375.16;4962556;28;20077;-24
2022/03/08 10:26:53;;;;;;;10.60;3.17;;;;;;;-148.56;100.00;61375.16;4959725;28;20036;-27
2022/03/08 10:30:39;;;;;;;2.85;2.13;;;;;;;-148.56;100.00;61375.16;4975673;28;20103;-29
2022/03/08 10:34:04;;;;;;;3.97;2.38;;;;;;;-148.56;100.00;61375.16;4996208;28;20040;-30
2022/03/08 10:37:33;;;;;;;6.40;2.40;;;;;;;-148.56;100.00;61375.16;5001952;28;20053;-28
2022/03/08 10:41:15;;;;;;;4.18;2.30;;;;;;;-148.56;100.00;61375.16;4961650;28;20044;-26
2022/03/08 10:44:48;;;;;;;7.13;2.50;;;;;;;-148.56;100.00;61375.16;4965725;28;20120;-28
2022/03/08 10:48:18;;;;;;;5.10;2.40;;;;;;;-148.56;100.00;61375.16;4968431;28;20096;-27
2022/03/08 10:51:42;;;;;;;3.80;2.45;;;;;;;-148.56;100.00;61375.16;4999841;28;20624;-30
2022/03/08 10:55:16;;;;;;;3.92;2.22;;;;;;;-148.56;100.00;61375.16;5007531;28;20724;-27
2022/03/08 10:58:52;;;;;;;6.85;2.10;;;;;;;-148.56;100.00;61375.16;5007384;28;20041;-31
2022/03/08 11:02:22;;;;;;;2.97;2.17;;;;;;;-148.56;100.00;61375.16;5002705;28;20046;-30
2022/03/08 11:05:47;;;;;;;3.00;2.10;;;;;;;-148.56;100.00;61375.16;5008062;28;20038;-28
2022/03/08 11:09:11;;;;;;;4.90;2.15;;;;;;;-148.56;100.00;61375.16;4995205;28;20826;-30
2022/03/08 11:12:35;;;;;;;12.25;2.35;;;;;;;-148.56;100.00;61375.16;4997720;28;20040;-29
2022/03/08 11:15:59;;;;;;;4.38;2.38;;;;;;;-148.56;100.00;61375.16;4994691;28;20554;-31
2022/03/08 11:19:26;;;;;;;3.60;1.73;;;;;;;-148.56;100.00;61375.16;4994075;28;20052;-28
2022/03/08 11:22:55;;;;;;;5.82;2.55;;;;;;;-148.56;100.00;61375.16;4998254;28;20412;-32
2022/03/08 11:26:19;;;;;;;3.17;1.90;;;;;;;-148.56;100.00;61375.16;4996727;28;20036;-29
2022/03/08 11:29:43;;;;;;;2.75;2.00;;;;;;;-148.56;100.00;61375.16;4997332;28;20540;-30
2022/03/08 11:33:19;;;;;;;3.13;2.00;;;;;;;-148.56;100.00;61375.16;5004434;28;20026;-30
2022/03/08 11:37:00;;;;;;;3.58;2.10;;;;;;;-148.56;100.00;61375.16;4985053;28;20029;-32
2022/03/08 11:40:24;;;;;;;5.45;3.10;;;;;;;-148.56;100.00;61375.16;4997653;28;20037;-30
2022/03/08 11:43:53;;;;;;;3.28;2.20;;;;;;;-148.56;100.00;61375.16;4992509;28;20030;-32
2022/03/08 11:47:17;;;;;;;3.35;2.30;;;;;;;-148.56;100.00;61375.16;4994720;28;20038;-30
2022/03/08 11:50:44;;;;;;;5.18;2.70;;;;;;;-148.56;100.00;61375.16;5001522;28;20029;-32
2022/03/08 11:54:09;;;;;;;3.95;2.20;;;;;;;-148.56;100.00;61375.16;4997283;28;20113;-29
2022/03/08 11:57:54;;;;;;;3.15;1.95;;;;;;;-148.56;100.00;61375.16;4999158;28;20037;-28
2022/03/08 12:01:25;;;;;;;4.70;1.95;;;;;;;-148.56;100.00;61375.16;5001290;28;20037;-28
2022/03/08 12:04:52;;;;;;;3.17;2.10;;;;;;;-148.56;100.00;61375.16;5002361;28;20033;-29
2022/03/08 12:08:28;;;;;;;2.97;2.00;;;;;;;-148.56;100.00;61375.16;4997138;28;20038;-32
2022/03/08 12:11:59;;;;;;;7.93;2.03;;;;;;;-148.56;100.00;61375.16;5000645;28;20431;-29
2022/03/08 12:15:24;;;;;;;2.90;1.83;;;;;;;-148.56;100.00;61375.16;4997626;28;20783;-29
2022/03/08 12:19:31;;;;;;;2.67;1.80;;;;;;;-148.56;100.00;61375.16;4996238;28;20056;-29
2022/03/08 12:23:07;;;;;;;3.38;1.75;;;;;;;-148.56;100.00;61375.16;4982678;28;20042;-31
2022/03/08 12:26:36;;;;;;;3.15;1.63;;;;;;;-148.56;100.00;61375.16;4999602;28;20030;-31
2022/03/08 12:30:04;;;;;;;2.45;1.80;;;;;;;-148.56;100.00;61375.16;4999952;28;20116;-31
2022/03/08 12:33:32;;;;;;;2.42;1.75;;;;;;;-148.56;100.00;61375.16;4999795;28;20025;-30
2022/03/08 12:37:07;;;;;;;4.93;1.80;;;;;;;-148.56;100.00;61375.16;5000639;28;20048;-32
2022/03/08 12:40:47;;;;;;;3.08;1.70;;;;;;;-148.56;100.00;61375.16;5007999;28;20030;-26
2022/03/08 12:44:11;;;;;;;3.45;1.90;;;;;;;-148.56;100.00;61375.16;5000962;28;20053;-29
2022/03/08 12:47:39;;;;;;;3.92;1.80;;;;;;;-148.56;100.00;61375.16;4998832;28;20157;-31
2022/03/08 12:51:06;;;;;;;2.38;1.60;;;;;;;-148.56;100.00;61375.16;5003152;28;20117;-30
2022/03/08 12:54:30;;;;;;;2.47;1.67;;;;;;;-148.56;100.00;61375.16;5001346;28;20033;-30
2022/03/08 12:57:55;;;;;;;5.38;2.00;;;;;;;-148.56;100.00;61375.16;5000652;28;20674;-29
2022/03/08 13:01:25;;;;;;;5.00;1.85;;;;;;;-148.56;100.00;61375.16;5004607;28;20515;-32
2022/03/08 13:04:49;;;;;;;1.98;1.52;;;;;;;-148.56;100.00;61375.16;5005066;28;20111;-29
2022/03/08 13:08:16;;;;;;;2.20;1.70;;;;;;;-148.56;100.00;61375.16;4995669;28;20053;-29
2022/03/08 13:11:43;;;;;;;4.93;1.83;;;;;;;-148.56;100.00;61375.16;5004047;28;20084;-28
2022/03/08 13:15:15;;;;;;;3.28;1.80;;;;;;;-148.56;100.00;61375.16;5000866;28;20159;-27
2022/03/08 13:18:42;;;;;;;2.10;1.27;;;;;;;-148.56;100.00;61375.16;4996849;28;20021;-30
2022/03/08 13:22:06;;;;;;;2.03;1.40;;;;;;;-148.56;100.00;61375.16;5004841;28;20172;-27
2022/03/08 13:25:30;;;;;;;2.67;1.70;;;;;;;-148.56;100.00;61375.16;4998407;28;20034;-27
2022/03/08 13:28:55;;;;;;;2.40;1.55;;;;;;;-148.56;100.00;61375.16;4997343;28;20036;-29
2022/03/08 13:32:19;;;;;;;4.05;1.70;;;;;;;-148.56;100.00;61375.16;5006660;28;20112;-28
2022/03/08 13:36:07;;;;;;;3.50;1.98;;;;;;;-148.56;100.00;61375.16;5007715;28;20121;-30
2022/03/08 13:39:43;;;;;;;5.07;1.77;;;;;;;-148.56;100.00;61375.16;5005735;28;20868;-30
2022/03/08 13:43:07;;;;;;;2.63;1.70;;;;;;;-148.56;100.00;61375.16;5003369;28;20041;-26
2022/03/08 13:46:36;;;;;;;2.42;1.70;;;;;;;-148.56;100.00;61375.16;5001133;28;20064;-30
2022/03/08 13:50:01;;;;;;;3.83;1.50;;;;;;;-148.56;100.00;61375.16;5004364;28;20044;-31
2022/03/08 13:53:25;;;;;;;4.80;1.38;;;;;;;-148.56;100.00;61375.16;5007109;28;20891;-29
2022/03/08 13:56:51;;;;;;;4.88;1.70;;;;;;;-148.56;100.00;61375.16;5001383;28;20096;-30
2022/03/08 14:00:42;;;;;;;2.22;1.40;;;;;;;-148.56;100.00;61375.16;5005677;28;20424;-29
2022/03/08 14:04:06;;;;;;;1.80;1.38;;;;;;;-148.56;100.00;61375.16;5008609;28;20083;-29
2022/03/08 14:07:30;;;;;;;1.63;1.40;;;;;;;-148.56;100.00;61375.16;5006630;28;20029;-30
2022/03/08 14:10:55;;;;;;;3.72;1.67;;;;;;;-148.56;100.00;61375.16;5002281;28;20617;-29
2022/03/08 14:14:20;;;;;;;1.38;1.10;;;;;;;-148.56;100.00;61375.16;5006432;28;20041;-31
2022/03/08 14:18:55;;;;;;;2.80;1.30;;;;;;;25.53;24.42;96859.63;4990821;27;20418;-28
2022/03/08 14:21:28;;;;;;;4.63;1.67;;;;;;;25.54;24.43;96860.44;4983337;28;20026;-28
2022/03/08 14:23:54;;;;;;;1.58;1.30;;;;;;;25.55;24.61;96849.88;4981533;28;20036;-26
2022/03/08 14:26:21;;;;;;;1.38;1.27;;;;;;;25.55;24.62;96844.63;4983120;28;20026;-30
2022/03/08 14:28:47;;;;;;;3.28;1.40;;;;;;;25.56;24.45;96842.91;4977412;28;20758;-28
2022/03/08 14:31:33;;;;;;;2.00;1.23;;;;;;;25.57;24.69;96848.06;4976971;28;20038;-29
2022/03/08 14:34:09;;;;;;;3.25;1.50;;;;;;;25.59;24.53;96852.38;4983245;28;20037;-28
2022/03/08 14:36:40;;;;;;;4.05;1.92;;;;;;;25.59;24.60;96852.38;4987428;28;20085;-28
2022/03/08 14:39:15;;;;;;;1.77;1.42;;;;;;;25.59;24.71;96847.16;4987639;28;20034;-28
2022/03/08 14:42:13;;;;;;;2.13;1.55;;;;;;;25.59;24.62;96853.22;4992693;28;20034;-29
2022/03/08 14:44:48;;;;;;;2.85;1.33;;;;;;;25.60;24.82;96854.94;4985398;28;20042;-26
2022/03/08 14:47:17;;;;;;;2.47;1.70;;;;;;;25.62;24.80;96853.06;4990740;28;20511;-26
2022/03/08 14:49:43;;;;;;;5.25;1.80;;;;;;;25.64;24.99;96855.63;4990532;28;20125;-30
2022/03/08 14:52:16;;;;;;;2.50;1.58;;;;;;;25.65;24.89;96849.44;4989613;28;20034;-28
2022/03/08 14:54:41;;;;;;;1.70;1.60;;;;;;;25.67;25.05;96851.06;4989341;28;20037;-27
2022/03/08 14:57:07;;;;;;;5.43;1.80;;;;;;;25.70;25.07;96855.28;4991233;28;20030;-28
2022/03/08 14:59:32;;;;;;;2.50;1.40;;;;;;;25.70;25.01;96856.16;4989409;28;20042;-30
2022/03/08 15:01:58;;;;;;;3.03;1.75;;;;;;;25.72;25.01;96850.81;4990314;28;20038;-29
2022/03/08 15:04:23;;;;;;;4.68;1.50;;;;;;;25.73;25.08;96849.91;4991070;28;20021;-27
2022/03/08 15:06:49;;;;;;;2.85;1.50;;;;;;;25.74;25.23;96856.00;4983950;28;21252;-28
2022/03/08 15:09:14;;;;;;;5.55;1.45;;;;;;;25.75;25.28;96853.31;4985976;28;20644;-27
2022/03/08 15:11:39;;;;;;;2.97;1.40;;;;;;;25.76;25.20;96848.88;4975478;28;20035;-29
2022/03/08 15:14:05;;;;;;;7.25;1.67;;;;;;;25.76;25.26;96855.00;4987596;28;20109;-29
2022/03/08 15:16:30;;;;;;;2.63;1.52;;;;;;;25.78;25.39;96841.78;4980423;28;20445;-26